createdAt,value
2023-02-08T04:41:24.020Z,93.84
2023-02-08T04:44:27.440Z,93.93
2023-02-08T04:47:32.054Z,93.03
2023-02-08T04:50:36.776Z,96.40
2023-02-08T04:53:39.953Z,93.96
2023-02-08T04:56:42.751Z,91.39
2023-02-08T04:59:45.411Z,89.01
2023-02-08T05:02:48.256Z,90.04
2023-02-08T05:06:00.526Z,90.61
2023-02-08T05:09:06.435Z,91.01
2023-02-08T05:12:09.108Z,90.20
2023-02-08T05:15:12.019Z,88.61
2023-02-08T05:18:14.622Z,91.43
2023-02-08T05:21:18.846Z,93.08
2023-02-08T05:24:21.512Z,93.66
2023-02-08T05:27:24.596Z,94.40
2023-02-08T05:30:28.989Z,94.15
2023-02-08T05:33:32.108Z,92.11
2023-02-08T05:36:34.727Z,92.34
2023-02-08T05:39:37.916Z,92.23
2023-02-08T05:42:42.417Z,91.02
2023-02-08T05:45:45.371Z,90.37
2023-02-08T05:48:49.318Z,90.33
2023-02-08T05:51:52.573Z,92.46
2023-02-08T05:54:55.227Z,93.45
2023-02-08T05:57:58.207Z,94.98
2023-02-08T06:01:00.874Z,92.81
2023-02-08T06:04:03.921Z,94.05
2023-02-08T06:07:06.610Z,96.16
2023-02-08T06:10:11.557Z,97.21
2023-02-08T06:13:17.554Z,97.99
2023-02-08T06:16:20.533Z,97.88
2023-02-08T06:19:23.329Z,97.18
2023-02-08T06:22:26.297Z,97.32
2023-02-08T06:25:29.254Z,96.62
2023-02-08T06:28:32.288Z,95.23
2023-02-08T06:31:35.935Z,95.33
2023-02-08T06:34:38.935Z,94.93
2023-02-08T06:37:41.685Z,94.41
2023-02-08T06:40:47.060Z,92.71
2023-02-08T06:43:49.692Z,91.33
2023-02-08T06:46:53.080Z,90.39
2023-02-08T06:49:56.472Z,88.20
2023-02-08T06:52:59.635Z,87.04
2023-02-08T06:56:02.371Z,86.15
2023-02-08T06:59:05.211Z,84.71
2023-02-08T07:02:17.330Z,84.99
2023-02-08T07:05:20.361Z,81.84
2023-02-08T07:08:23.060Z,79.67
2023-02-08T07:11:27.178Z,78.21
2023-02-08T07:14:29.820Z,77.19
2023-02-08T07:17:32.835Z,76.98
2023-02-08T07:20:36.624Z,76.25
2023-02-08T07:23:40.308Z,76.46
2023-02-08T07:26:43.049Z,75.39
2023-02-08T07:29:46.525Z,74.20
2023-02-08T07:32:49.163Z,74.57
2023-02-08T07:35:52.562Z,73.07
2023-02-08T07:38:55.143Z,72.32
2023-02-08T07:41:59.236Z,67.15
2023-02-08T07:45:04.430Z,64.75
2023-02-08T07:48:08.322Z,63.61
2023-02-08T07:51:12.640Z,65.04
2023-02-08T07:54:15.800Z,67.05
2023-02-08T07:57:21.331Z,66.64
2023-02-08T08:00:26.960Z,66.53
2023-02-08T08:03:30.013Z,65.62
2023-02-08T08:06:32.769Z,63.90
2023-02-08T08:09:35.758Z,59.16
2023-02-08T08:12:38.261Z,58.18
2023-02-08T08:15:41.502Z,59.29
2023-02-08T08:18:44.315Z,61.45
2023-02-08T08:21:47.269Z,61.97
2023-02-08T08:24:50.047Z,63.00
2023-02-08T08:27:54.487Z,63.31
2023-02-08T08:30:57.815Z,62.52
2023-02-08T08:34:00.696Z,62.84
2023-02-08T08:37:03.295Z,62.12
2023-02-08T08:40:07.357Z,61.33
2023-02-08T08:43:11.351Z,61.05
2023-02-08T08:46:15.193Z,62.26
2023-02-08T08:49:18.023Z,62.02
2023-02-08T08:52:21.621Z,61.52
2023-02-08T08:55:24.364Z,61.90
2023-02-08T08:58:27.455Z,58.46
2023-02-08T09:01:31.857Z,59.56
2023-02-08T09:04:36.738Z,61.07
2023-02-08T09:07:39.349Z,62.18
2023-02-08T09:10:42.707Z,60.63
2023-02-08T09:13:45.497Z,58.02
2023-02-08T09:16:49.206Z,57.88
2023-02-08T09:19:52.256Z,55.33
2023-02-08T09:22:58.107Z,54.98
2023-02-08T09:26:09.956Z,54.60
2023-02-08T09:29:12.882Z,54.90
2023-02-08T09:32:15.582Z,55.84
2023-02-08T09:35:18.620Z,56.61
2023-02-08T09:38:22.904Z,56.49
2023-02-08T09:41:49.222Z,56.42
2023-02-08T09:45:22.715Z,55.63
2023-02-08T09:48:39.032Z,57.54
2023-02-08T09:51:56.329Z,57.38
2023-02-08T09:55:03.312Z,58.11
2023-02-08T09:58:27.941Z,58.20
2023-02-08T10:01:33.830Z,57.96
2023-02-08T10:04:55.550Z,58.55
2023-02-08T10:07:58.690Z,58.24
2023-02-08T10:11:08.365Z,58.30
2023-02-08T10:14:30.028Z,58.85
2023-02-08T10:17:35.606Z,58.82
2023-02-08T10:21:03.810Z,58.37
2023-02-08T10:24:09.435Z,58.53
2023-02-08T10:27:16.441Z,58.25
2023-02-08T10:30:34.638Z,57.21
2023-02-08T10:33:59.753Z,57.84
2023-02-08T10:37:15.325Z,58.82
2023-02-08T10:40:26.142Z,57.99
2023-02-08T10:43:38.159Z,58.11
2023-02-08T10:47:22.626Z,58.81
2023-02-08T10:50:35.355Z,57.78
2023-02-08T10:53:38.250Z,58.37
2023-02-08T10:56:46.852Z,57.34
2023-02-08T10:59:53.415Z,58.34
2023-02-08T11:03:00.790Z,59.27
2023-02-08T11:06:03.679Z,59.51
2023-02-08T11:09:06.640Z,59.59
2023-02-08T11:12:20.228Z,58.95
2023-02-08T11:15:27.560Z,58.08
2023-02-08T11:18:34.425Z,56.03
2023-02-08T11:21:40.287Z,54.89
2023-02-08T11:24:50.270Z,54.02
2023-02-08T11:27:53.188Z,53.27
2023-02-08T11:30:59.593Z,54.00
2023-02-08T11:34:03.763Z,52.57
2023-02-08T11:37:20.949Z,52.89
2023-02-08T11:40:35.356Z,52.64
2023-02-08T11:43:38.063Z,50.99
2023-02-08T11:46:48.417Z,50.60
2023-02-08T11:50:03.411Z,50.73
2023-02-08T11:53:21.247Z,50.04
2023-02-08T11:56:27.783Z,49.74
2023-02-08T11:59:31.028Z,50.25
2023-02-08T12:02:39.624Z,50.52
2023-02-08T12:05:49.314Z,50.77
2023-02-08T12:09:27.603Z,50.20
2023-02-08T12:12:48.820Z,50.77
2023-02-08T12:16:12.626Z,52.23
2023-02-08T12:19:21.685Z,52.38
2023-02-08T12:22:26.682Z,51.81
2023-02-08T12:25:52.921Z,50.73
2023-02-08T12:29:13.686Z,49.79
2023-02-08T12:32:52.168Z,48.67
2023-02-08T12:36:16.602Z,47.16
2023-02-08T12:40:37.196Z,48.05
2023-02-08T12:44:16.083Z,48.61
2023-02-08T12:48:03.667Z,48.00
2023-02-08T12:51:36.242Z,45.84
2023-02-08T12:55:00.950Z,45.98
2023-02-08T12:58:30.272Z,45.87
2023-02-08T13:01:43.338Z,45.49
2023-02-08T13:04:54.048Z,45.60
2023-02-08T13:08:13.162Z,45.47
2023-02-08T13:11:24.193Z,46.33
2023-02-08T13:14:40.129Z,45.39
2023-02-08T13:18:00.033Z,45.29
2023-02-08T13:21:11.639Z,44.86
2023-02-08T13:24:26.373Z,45.66
2023-02-08T13:27:29.481Z,44.86
2023-02-08T13:30:36.391Z,44.55
2023-02-08T13:34:04.529Z,44.43
2023-02-08T13:37:25.778Z,44.07
2023-02-08T13:40:33.833Z,43.75
2023-02-08T13:43:46.023Z,43.61
2023-02-08T13:46:50.520Z,43.42
2023-02-08T13:49:57.110Z,41.06
2023-02-08T13:53:03.540Z,42.06
2023-02-08T13:56:10.538Z,39.56
2023-02-08T13:59:33.901Z,38.68
2023-02-08T14:02:36.671Z,35.84
2023-02-08T14:05:49.042Z,31.80
2023-02-08T14:09:19.920Z,29.36
2023-02-08T14:12:55.446Z,27.13
2023-02-08T14:16:29.098Z,25.23
2023-02-08T14:19:43.793Z,24.76
2023-02-08T14:22:52.359Z,24.80
2023-02-08T14:25:58.806Z,22.23
2023-02-08T14:29:04.617Z,22.65
2023-02-08T14:32:08.349Z,23.68
2023-02-08T14:35:26.201Z,25.72
2023-02-08T14:38:34.147Z,30.56
2023-02-08T14:41:47.268Z,30.33
2023-02-08T14:44:59.387Z,30.36
2023-02-08T14:48:31.788Z,31.91
2023-02-08T14:51:38.631Z,32.96
2023-02-08T14:54:48.437Z,36.38
2023-02-08T14:57:56.334Z,36.31
2023-02-08T15:01:03.592Z,36.88
2023-02-08T15:04:06.850Z,39.78
2023-02-08T15:07:18.612Z,41.76
2023-02-08T15:10:24.446Z,43.74
2023-02-08T15:13:27.671Z,44.78
2023-02-08T15:16:40.208Z,45.73
2023-02-08T15:19:46.056Z,46.66
2023-02-08T15:22:49.279Z,48.19
2023-02-08T15:26:01.744Z,48.99
2023-02-08T15:29:18.360Z,49.38
2023-02-08T15:32:24.364Z,50.55
2023-02-08T15:35:29.014Z,51.21
2023-02-08T15:38:33.002Z,52.39
2023-02-08T15:41:35.957Z,52.34
2023-02-08T15:44:43.913Z,53.39
2023-02-08T15:47:47.241Z,54.05
2023-02-08T15:50:51.142Z,55.29
2023-02-08T15:53:56.743Z,55.62
2023-02-08T15:57:17.252Z,57.54
2023-02-08T16:00:29.073Z,57.45
2023-02-08T16:03:33.349Z,58.92
2023-02-08T16:06:40.772Z,58.97
2023-02-08T16:09:47.372Z,58.95
2023-02-08T16:12:59.069Z,61.93
2023-02-08T16:16:21.046Z,61.26
2023-02-08T16:19:29.479Z,61.16
2023-02-08T16:22:33.158Z,61.83
2023-02-08T16:25:37.932Z,63.46
2023-02-08T16:28:41.278Z,64.63
2023-02-08T16:31:46.727Z,66.57
2023-02-08T16:34:49.798Z,64.11
2023-02-08T16:38:00.287Z,65.59
2023-02-08T16:41:13.146Z,65.41
2023-02-08T16:44:23.000Z,65.76
2023-02-08T16:47:34.502Z,68.72
2023-02-08T16:50:38.904Z,68.51
2023-02-08T16:53:47.593Z,67.65
2023-02-08T16:56:55.784Z,69.06
2023-02-08T17:00:00.905Z,68.83
2023-02-08T17:03:05.142Z,68.62
2023-02-08T17:06:36.349Z,69.05
2023-02-08T17:09:39.259Z,68.26
2023-02-08T17:12:42.636Z,69.22
